createdAt,value
2023-01-01T00:00:18.665Z,1013.483871
2023-01-01T00:05:18.455Z,1013.482758
2023-01-01T00:10:18.461Z,1013.453735
2023-01-01T00:15:18.301Z,1013.486981
2023-01-01T00:20:18.373Z,1013.539368
2023-01-01T00:25:18.429Z,1013.668164
2023-01-01T00:30:18.604Z,1013.692804
2023-01-01T00:35:18.567Z,1013.802167
2023-01-01T00:40:18.388Z,1013.893927
2023-01-01T00:45:21.893Z,1013.815886
2023-01-01T00:50:18.415Z,1013.848404
2023-01-01T00:55:18.501Z,1013.836230
2023-01-01T01:00:18.415Z,1013.850991
2023-01-01T01:10:15.826Z,1013.892261
2023-01-01T01:15:15.911Z,1013.899574
2023-01-01T01:20:16.015Z,1014.004412
2023-01-01T01:25:15.801Z,1013.993474
2023-01-01T01:30:15.887Z,1014.022018
2023-01-01T01:35:16.078Z,1014.026994
2023-01-01T01:40:15.970Z,1014.095525
2023-01-01T01:45:15.833Z,1014.168908
2023-01-01T01:50:15.837Z,1014.126457
2023-01-01T01:55:15.899Z,1014.157843
2023-01-01T02:00:16.443Z,1014.185279
2023-01-01T02:05:15.973Z,1014.184825
2023-01-01T02:10:15.782Z,1014.202103
2023-01-01T02:15:16.025Z,1014.182315
2023-01-01T02:20:15.983Z,1014.164828
2023-01-01T02:25:15.841Z,1014.141585
2023-01-01T02:30:15.843Z,1014.133441
2023-01-01T02:35:15.938Z,1014.115339
2023-01-01T02:40:15.918Z,1014.107563
2023-01-01T02:45:15.754Z,1014.098142
2023-01-01T02:50:15.896Z,1014.124348
2023-01-01T02:55:15.931Z,1014.155820
2023-01-01T03:00:16.039Z,1014.051082
2023-01-01T03:05:16.087Z,1014.002748
2023-01-01T03:10:15.918Z,1013.994359
2023-01-01T03:15:15.889Z,1013.988765
2023-01-01T03:20:15.900Z,1013.999624
2023-01-01T03:25:16.056Z,1013.948692
2023-01-01T03:30:15.881Z,1013.977117
2023-01-01T03:35:16.168Z,1013.988222
2023-01-01T03:40:16.252Z,1014.006037
2023-01-01T03:45:16.033Z,1013.970534
2023-01-01T03:50:16.152Z,1014.023235
2023-01-01T03:55:15.879Z,1014.065321
2023-01-01T04:00:15.802Z,1014.090622
2023-01-01T04:05:16.095Z,1014.067584
2023-01-01T04:10:16.087Z,1014.116003
2023-01-01T04:15:18.291Z,1014.132830
2023-01-01T04:20:18.240Z,1014.161088
2023-01-01T04:25:18.560Z,1014.170474
2023-01-01T04:30:18.318Z,1014.131304
2023-01-01T04:35:18.367Z,1014.197086
2023-01-01T04:40:18.283Z,1014.215231
2023-01-01T04:45:18.567Z,1014.200468
2023-01-01T04:50:18.404Z,1014.222561
2023-01-01T04:55:18.450Z,1014.267120
2023-01-01T05:00:18.228Z,1014.283092
2023-01-01T05:05:18.249Z,1014.304240
2023-01-01T05:10:18.300Z,1014.341048
2023-01-01T05:15:18.332Z,1014.415866
2023-01-01T05:20:18.243Z,1014.412570
2023-01-01T05:25:18.336Z,1014.397105
2023-01-01T05:30:18.277Z,1014.445158
2023-01-01T05:35:21.684Z,1014.469064
2023-01-01T05:40:18.303Z,1014.466063
2023-01-01T05:45:18.365Z,1014.533407
2023-01-01T05:50:18.280Z,1014.588694
2023-01-01T05:55:18.196Z,1014.559490
2023-01-01T06:00:18.267Z,1014.599806
2023-01-01T06:05:18.311Z,1014.613622
2023-01-01T06:10:18.355Z,1014.692848
2023-01-01T06:15:18.301Z,1014.896781
2023-01-01T06:20:18.280Z,1015.020356
2023-01-01T06:25:18.622Z,1015.126245
2023-01-01T06:30:18.360Z,1015.177428
2023-01-01T06:35:18.639Z,1015.216950
2023-01-01T06:40:18.245Z,1015.255331
2023-01-01T06:45:18.478Z,1015.282890
2023-01-01T06:50:18.269Z,1015.269536
2023-01-01T06:55:18.438Z,1015.234800
2023-01-01T07:00:18.170Z,1015.314991
2023-01-01T07:05:18.278Z,1015.457928
2023-01-01T07:10:18.144Z,1015.556387
2023-01-01T07:15:18.457Z,1015.630103
2023-01-01T07:20:18.296Z,1015.612996
2023-01-01T07:25:18.264Z,1015.720328
2023-01-01T07:30:18.266Z,1015.752949
2023-01-01T07:35:18.713Z,1015.846492
2023-01-01T07:40:18.320Z,1015.988873
2023-01-01T07:45:18.429Z,1016.021045
2023-01-01T07:50:18.248Z,1016.093432
2023-01-01T07:55:18.283Z,1016.211284
2023-01-01T08:00:18.232Z,1016.273644
2023-01-01T08:05:24.307Z,1016.328973
2023-01-01T08:10:18.435Z,1016.266446
2023-01-01T08:15:18.170Z,1016.366468
2023-01-01T08:20:18.256Z,1016.388344
2023-01-01T08:25:18.198Z,1016.408171
2023-01-01T08:30:18.150Z,1016.514618
2023-01-01T08:35:18.182Z,1016.575426
2023-01-01T08:40:18.234Z,1016.640111
2023-01-01T08:45:18.472Z,1016.705684
2023-01-01T08:50:18.242Z,1016.766052
2023-01-01T08:55:18.363Z,1016.761845
2023-01-01T09:00:18.381Z,1016.868456
2023-01-01T09:05:18.322Z,1016.888502
2023-01-01T09:10:18.397Z,1016.839599
2023-01-01T09:15:18.172Z,1016.747446
2023-01-01T09:20:18.222Z,1016.864968
2023-01-01T09:25:18.379Z,1016.856553
2023-01-01T09:30:18.451Z,1016.916757
2023-01-01T09:35:18.598Z,1016.977406
2023-01-01T09:40:18.228Z,1017.061479
2023-01-01T09:45:18.514Z,1017.122348
2023-01-01T09:50:18.292Z,1017.201056
2023-01-01T09:55:18.203Z,1017.110036
2023-01-01T10:00:18.161Z,1017.018413
2023-01-01T10:05:18.075Z,1017.047774
2023-01-01T10:10:18.213Z,1017.107539
2023-01-01T10:15:18.144Z,1017.211823
2023-01-01T10:20:18.257Z,1017.127740
2023-01-01T10:25:18.624Z,1017.107315
2023-01-01T10:30:18.156Z,1017.018105
2023-01-01T10:35:18.372Z,1016.992656
2023-01-01T10:40:18.140Z,1017.016959
2023-01-01T10:45:18.110Z,1017.127946
2023-01-01T10:50:18.118Z,1017.081551
2023-01-01T10:55:18.232Z,1017.195925
2023-01-01T11:00:18.349Z,1017.289064
2023-01-01T11:05:21.891Z,1017.223646
2023-01-01T11:10:18.293Z,1017.013880
2023-01-01T11:15:18.466Z,1016.962783
2023-01-01T11:20:18.645Z,1016.875978
2023-01-01T11:25:18.355Z,1016.904238
2023-01-01T11:30:18.271Z,1016.896171
2023-01-01T11:35:18.167Z,1016.877043
2023-01-01T11:40:18.237Z,1016.789140
2023-01-01T11:45:18.147Z,1016.835801
2023-01-01T11:50:18.289Z,1016.952626
2023-01-01T11:55:18.062Z,1016.951875
2023-01-01T12:00:18.241Z,1016.852690
2023-01-01T12:05:18.217Z,1016.693612
2023-01-01T12:10:18.216Z,1016.723847
2023-01-01T12:15:18.168Z,1016.801556
2023-01-01T12:20:18.161Z,1016.810363
2023-01-01T12:25:18.171Z,1016.848178
2023-01-01T12:30:18.416Z,1016.810241
2023-01-01T12:35:18.306Z,1016.781567
2023-01-01T12:40:22.815Z,1016.755156
2023-01-01T12:45:18.005Z,1016.677241
2023-01-01T12:50:18.206Z,1016.671604
2023-01-01T12:55:18.718Z,1016.635651
2023-01-01T13:00:18.318Z,1016.566417
2023-01-01T13:05:18.180Z,1016.584891
2023-01-01T13:10:18.133Z,1016.657505
2023-01-01T13:15:18.497Z,1016.651382
2023-01-01T13:20:18.123Z,1016.749500
2023-01-01T13:25:18.436Z,1016.739015
2023-01-01T13:30:18.477Z,1016.841181
2023-01-01T13:35:18.423Z,1016.907374
2023-01-01T13:40:18.162Z,1016.923563
2023-01-01T13:45:44.187Z,1016.954107
2023-01-01T13:50:18.373Z,1017.105389
2023-01-01T13:55:18.328Z,1017.221999
2023-01-01T14:00:18.342Z,1017.324213
2023-01-01T14:05:18.377Z,1017.415555
2023-01-01T14:10:18.275Z,1017.442300
2023-01-01T14:15:18.440Z,1017.445941
2023-01-01T14:20:18.247Z,1017.542514
2023-01-01T14:25:18.113Z,1017.579109
2023-01-01T14:30:18.558Z,1017.565653
2023-01-01T14:35:18.331Z,1017.604479
2023-01-01T14:40:18.226Z,1017.691077
2023-01-01T14:45:18.531Z,1017.607056
2023-01-01T14:50:18.365Z,1017.645096
2023-01-01T14:55:18.166Z,1017.704736
2023-01-01T15:00:18.013Z,1017.772241
2023-01-01T15:05:18.521Z,1017.798379
2023-01-01T15:10:18.293Z,1017.828394
2023-01-01T15:15:18.169Z,1017.902383
2023-01-01T15:20:18.223Z,1017.947962
2023-01-01T15:25:18.222Z,1017.975986
2023-01-01T15:30:18.066Z,1017.979753
2023-01-01T15:35:18.113Z,1017.999194
2023-01-01T15:40:18.196Z,1018.094457
2023-01-01T15:45:18.098Z,1018.016529
2023-01-01T15:50:17.983Z,1018.012096
2023-01-01T15:55:18.032Z,1018.140637
2023-01-01T16:00:18.125Z,1018.144291
2023-01-01T16:05:18.097Z,1018.214571
2023-01-01T16:10:18.103Z,1018.174973
2023-01-01T16:15:18.013Z,1018.179846
2023-01-01T16:20:18.017Z,1018.201611
2023-01-01T16:25:18.056Z,1018.227532
2023-01-01T16:30:18.547Z,1018.180626
2023-01-01T16:35:18.174Z,1018.199074
2023-01-01T16:40:23.071Z,1018.168460
2023-01-01T16:45:18.067Z,1018.210240
2023-01-01T16:50:18.043Z,1018.194081
2023-01-01T16:55:18.585Z,1018.138103
2023-01-01T17:00:18.020Z,1018.146427
2023-01-01T17:05:17.978Z,1018.128164
2023-01-01T17:10:18.092Z,1018.185351
2023-01-01T17:15:17.970Z,1018.163948
2023-01-01T17:20:18.276Z,1018.179561
2023-01-01T17:25:18.214Z,1018.173801
2023-01-01T17:30:18.273Z,1018.135315
2023-01-01T17:35:18.054Z,1018.199068
2023-01-01T17:40:17.968Z,1018.266473
2023-01-01T17:45:18.157Z,1018.346233
2023-01-01T17:50:18.004Z,1018.393248
2023-01-01T17:55:18.049Z,1018.425809
2023-01-01T18:00:18.088Z,1018.441741
2023-01-01T18:05:18.201Z,1018.390092
2023-01-01T18:10:18.123Z,1018.394981
2023-01-01T18:15:17.969Z,1018.360925
2023-01-01T18:20:18.427Z,1018.421910
2023-01-01T18:25:18.146Z,1018.495684
2023-01-01T18:30:18.041Z,1018.447028
2023-01-01T18:35:18.081Z,1018.457079
2023-01-01T18:40:18.046Z,1018.473974
2023-01-01T18:45:18.151Z,1018.438826
2023-01-01T18:50:18.146Z,1018.486492
2023-01-01T18:55:18.105Z,1018.513166
2023-01-01T19:00:18.002Z,1018.487685
2023-01-01T19:05:18.124Z,1018.443652
2023-01-01T19:10:18.166Z,1018.442985
2023-01-01T19:15:17.932Z,1018.383597
2023-01-01T19:20:18.121Z,1018.364138
2023-01-01T19:25:18.055Z,1018.344526
2023-01-01T19:30:17.935Z,1018.328353
2023-01-01T19:35:17.943Z,1018.308694
2023-01-01T19:40:17.938Z,1018.278895
2023-01-01T19:45:17.962Z,1018.214156
2023-01-01T19:50:18.029Z,1018.182810
2023-01-01T19:55:18.383Z,1018.232317
2023-01-01T20:00:18.035Z,1018.164914
2023-01-01T20:05:17.988Z,1018.164210
2023-01-01T20:10:18.443Z,1018.127006
2023-01-01T20:15:18.187Z,1018.083367
2023-01-01T20:20:18.244Z,1018.070864
2023-01-01T20:25:18.186Z,1017.985703
2023-01-01T20:30:18.217Z,1017.998999
2023-01-01T20:35:18.240Z,1018.059838
2023-01-01T20:40:18.143Z,1018.111035
2023-01-01T20:45:17.994Z,1018.049325
2023-01-01T20:50:18.091Z,1017.912999
2023-01-01T20:55:18.015Z,1017.807838
2023-01-01T21:00:18.037Z,1017.701834
2023-01-01T21:05:18.016Z,1017.665546
2023-01-01T21:10:17.887Z,1017.652432
2023-01-01T21:15:17.926Z,1017.593754
2023-01-01T21:20:18.012Z,1017.415118
2023-01-01T21:25:49.804Z,1017.490268
2023-01-01T21:30:18.050Z,1017.379619
2023-01-01T21:35:18.090Z,1017.282837
2023-01-01T21:40:18.071Z,1017.225887
2023-01-01T21:45:17.931Z,1017.202732
2023-01-01T21:50:17.861Z,1017.242248
2023-01-01T21:55:17.880Z,1017.203226
2023-01-01T22:00:18.108Z,1017.194208
2023-01-01T22:05:17.934Z,1017.136396
2023-01-01T22:10:17.883Z,1017.139073
2023-01-01T22:15:17.953Z,1017.087181
2023-01-01T22:20:17.978Z,1017.196504
2023-01-01T22:25:18.216Z,1017.167758
2023-01-01T22:30:17.920Z,1017.174764
2023-01-01T22:35:17.966Z,1017.152385
2023-01-01T22:40:18.022Z,1017.134077
2023-01-01T22:45:18.356Z,1017.114504
2023-01-01T22:50:17.901Z,1017.026227
2023-01-01T22:55:18.066Z,1016.960320
2023-01-01T23:00:18.066Z,1016.894677
2023-01-01T23:05:18.168Z,1016.746531
2023-01-01T23:10:17.918Z,1016.661942
2023-01-01T23:15:18.005Z,1016.622610
2023-01-01T23:20:18.483Z,1016.574314
2023-01-01T23:25:17.926Z,1016.490849
2023-01-01T23:30:18.319Z,1016.444571
2023-01-01T23:35:18.020Z,1016.414211
2023-01-01T23:40:17.904Z,1016.345784
2023-01-01T23:45:17.797Z,1016.336348
2023-01-01T23:50:17.978Z,1016.266573
2023-01-01T23:55:18.142Z,1016.292594
